KFFM

Fergus Falls Municipal-Einar Mickelson Field Airport

Fergus Falls, Minnesota, USA
METAR KFFM 192035Z AUTO 34019G30KT 10SM SCT070 15/01 A2993 RMK AO2
Observed Flight Rules
Oct-19 @ 20:35 UTC (16 minutes ago) Visual Flight Rules
Wind Visibility Clouds
340° at 19 knots
 Gusting to 30 knots
10 miles
  • Scattered at 7,000' AGL
Temperatures Readings
Current 15°C / 59°F
Dewpoint 1°C / 34°F
Humidity 39%
Altimeter 29.93" Hg
Pressure 1014 hPa
Elevation 361
METAR KFFM 192035Z AUTO 34019G30KT 10SM SCT070 15/01 A2993 RMK AO2
Observed Flight Rules
Oct-19 @ 20:35 UTC
(16 minutes ago)
VFR
Wind Visibility
340° at 19 knots
 Gusting to 30 knots
10 miles
Clouds
  • Scattered at 7,000' AGL
Temperature Dewpoint
15°C / 59°F 1°C / 34°F
Humidity Altimeter Pressure
39% 29.93" Hg 1014 hPa